createdAt,value
2017-06-23T00:01:27.708Z,26.21
2017-06-23T00:03:53.532Z,26.25
2017-06-23T00:06:19.552Z,26.17
2017-06-23T00:08:45.516Z,26.17
2017-06-23T00:11:11.349Z,26.11
2017-06-23T00:13:37.254Z,26.16
2017-06-23T00:16:03.152Z,26.11
2017-06-23T00:18:29.000Z,25.95
2017-06-23T00:20:54.861Z,26.21
2017-06-23T00:23:20.760Z,26.31
2017-06-23T00:25:46.712Z,26.33
2017-06-23T00:28:12.552Z,26.27
2017-06-23T00:30:38.516Z,26.37
2017-06-23T00:33:04.372Z,26.48
2017-06-23T00:35:30.255Z,26.51
2017-06-23T00:37:56.149Z,26.51
2017-06-23T00:40:21.988Z,26.53
2017-06-23T00:42:47.872Z,26.56
2017-06-23T00:45:13.817Z,26.55
2017-06-23T00:47:39.719Z,26.50
2017-06-23T00:50:05.660Z,26.55
2017-06-23T00:52:31.536Z,26.48
2017-06-23T00:54:57.376Z,26.48
2017-06-23T00:57:23.211Z,26.46
2017-06-23T00:59:49.169Z,26.40
2017-06-23T01:02:15.070Z,26.30
2017-06-23T01:04:40.981Z,26.31
2017-06-23T01:07:06.827Z,26.24
2017-06-23T01:09:32.700Z,26.19
2017-06-23T01:11:58.681Z,26.23
2017-06-23T01:14:24.569Z,26.10
2017-06-23T01:16:51.588Z,26.11
2017-06-23T01:19:17.464Z,25.94
2017-06-23T01:21:43.367Z,25.88
2017-06-23T01:24:09.232Z,25.88
2017-06-23T01:26:35.148Z,25.81
2017-06-23T01:29:01.019Z,25.85
2017-06-23T01:31:26.913Z,25.72
2017-06-23T01:33:52.760Z,25.65
2017-06-23T01:36:18.680Z,25.63
2017-06-23T01:38:44.577Z,25.50
2017-06-23T01:41:10.684Z,25.61
2017-06-23T01:43:36.554Z,25.51
2017-06-23T01:46:02.437Z,25.39
2017-06-23T01:48:28.523Z,25.42
2017-06-23T01:50:54.448Z,25.33
2017-06-23T01:53:20.366Z,25.35
2017-06-23T01:55:53.164Z,25.26
2017-06-23T01:58:19.047Z,25.32
2017-06-23T02:00:45.027Z,25.27
2017-06-23T02:03:10.892Z,25.15
2017-06-23T02:05:36.910Z,25.16
2017-06-23T02:08:02.860Z,25.17
2017-06-23T02:10:28.752Z,25.06
2017-06-23T02:12:54.681Z,24.85
2017-06-23T02:15:20.536Z,24.84
2017-06-23T02:17:47.180Z,24.83
2017-06-23T02:20:13.623Z,24.82
2017-06-23T02:22:39.503Z,24.65
2017-06-23T02:25:05.424Z,24.76
2017-06-23T02:27:31.328Z,24.70
2017-06-23T02:29:58.111Z,24.62
2017-06-23T02:32:23.961Z,24.53
2017-06-23T02:34:49.872Z,24.69
2017-06-23T02:37:15.744Z,24.64
2017-06-23T02:39:41.647Z,24.70
2017-06-23T02:42:07.493Z,24.66
2017-06-23T02:44:33.458Z,24.62
2017-06-23T02:46:59.315Z,24.57
2017-06-23T02:49:25.161Z,24.55
2017-06-23T02:51:51.191Z,24.65
2017-06-23T02:54:17.126Z,24.48
2017-06-23T02:56:42.997Z,24.51
2017-06-23T02:59:09.109Z,24.54
2017-06-23T03:01:34.976Z,24.51
2017-06-23T03:04:00.890Z,24.49
2017-06-23T03:06:26.859Z,24.45
2017-06-23T03:08:52.705Z,24.41
2017-06-23T03:11:18.684Z,24.40
2017-06-23T03:13:44.524Z,24.35
2017-06-23T03:16:10.392Z,24.35
2017-06-23T03:18:36.397Z,24.07
2017-06-23T03:21:02.216Z,24.17
2017-06-23T03:23:29.015Z,24.13
2017-06-23T03:25:54.872Z,24.15
2017-06-23T03:28:20.697Z,24.08
2017-06-23T03:30:46.538Z,24.12
2017-06-23T03:33:12.521Z,24.21
2017-06-23T03:35:38.353Z,24.23
2017-06-23T03:38:04.193Z,24.23
2017-06-23T03:40:30.164Z,24.08
2017-06-23T03:42:56.039Z,24.01
2017-06-23T03:45:22.025Z,24.04
2017-06-23T03:47:47.903Z,23.94
2017-06-23T03:50:14.908Z,23.99
2017-06-23T03:52:40.778Z,23.90
2017-06-23T03:55:06.688Z,23.83
2017-06-23T03:57:32.613Z,23.84
2017-06-23T03:59:58.500Z,23.91
2017-06-23T04:02:24.346Z,23.86
2017-06-23T04:04:50.306Z,23.93
2017-06-23T04:07:16.197Z,23.92
2017-06-23T04:09:42.074Z,24.00
2017-06-23T04:12:07.976Z,23.92
2017-06-23T04:14:33.928Z,24.02
2017-06-23T04:16:59.757Z,24.07
2017-06-23T04:19:25.818Z,23.99
2017-06-23T04:21:51.792Z,23.99
2017-06-23T04:24:17.674Z,23.89
2017-06-23T04:26:43.556Z,23.98
2017-06-23T04:29:09.451Z,23.79
2017-06-23T04:31:35.270Z,23.93
2017-06-23T04:34:01.077Z,23.98
2017-06-23T04:36:26.971Z,23.84
2017-06-23T04:38:52.872Z,23.98
2017-06-23T04:41:18.766Z,24.03
2017-06-23T04:43:44.775Z,24.15
2017-06-23T04:46:10.808Z,24.22
2017-06-23T04:48:36.850Z,24.25
2017-06-23T04:51:02.902Z,24.23
2017-06-23T04:53:28.884Z,24.32
2017-06-23T04:55:54.713Z,24.27
2017-06-23T04:58:20.534Z,24.46
2017-06-23T05:00:46.528Z,24.18
2017-06-23T05:03:12.389Z,24.26
2017-06-23T05:05:38.325Z,24.39
2017-06-23T05:08:04.127Z,24.43
2017-06-23T05:10:30.042Z,24.25
2017-06-23T05:12:56.089Z,24.41
2017-06-23T05:15:22.137Z,24.40
2017-06-23T05:17:48.109Z,24.51
2017-06-23T05:20:14.075Z,24.46
2017-06-23T05:22:39.982Z,24.64
2017-06-23T05:25:05.908Z,24.67
2017-06-23T05:27:31.841Z,24.60
2017-06-23T05:29:57.747Z,24.88
2017-06-23T05:32:23.704Z,24.70
2017-06-23T05:34:49.670Z,25.00
2017-06-23T05:37:15.702Z,25.12
2017-06-23T05:39:41.673Z,25.14
2017-06-23T05:42:07.560Z,25.32
2017-06-23T05:44:33.617Z,25.29
2017-06-23T05:46:59.707Z,25.33
2017-06-23T05:49:25.707Z,25.23
2017-06-23T05:51:51.585Z,25.41
2017-06-23T05:54:17.469Z,25.46
2017-06-23T05:56:43.311Z,25.63
2017-06-23T05:59:09.281Z,25.70
2017-06-23T06:01:35.093Z,25.89
2017-06-23T06:04:00.953Z,25.78
2017-06-23T06:06:26.808Z,25.94
2017-06-23T06:08:52.811Z,25.96
2017-06-23T06:11:18.731Z,26.17
2017-06-23T06:13:44.588Z,26.21
2017-06-23T06:16:10.427Z,25.81
2017-06-23T06:18:36.551Z,26.07
2017-06-23T06:21:02.417Z,26.11
2017-06-23T06:23:28.226Z,26.35
2017-06-23T06:25:54.099Z,26.61
2017-06-23T06:28:19.956Z,26.76
2017-06-23T06:30:46.060Z,26.64
2017-06-23T06:33:11.940Z,26.70
2017-06-23T06:35:37.763Z,26.79
2017-06-23T06:38:03.622Z,26.43
2017-06-23T06:40:30.142Z,26.95
2017-06-23T06:42:56.852Z,27.04
2017-06-23T06:45:22.763Z,27.00
2017-06-23T06:47:49.515Z,26.77
2017-06-23T06:50:15.961Z,26.77
2017-06-23T06:52:41.983Z,26.86
2017-06-23T06:55:07.806Z,27.14
2017-06-23T06:57:33.750Z,27.39
2017-06-23T06:59:59.645Z,27.10
2017-06-23T07:02:25.531Z,27.23
2017-06-23T07:04:51.433Z,27.88
2017-06-23T07:07:17.387Z,27.78
2017-06-23T07:09:43.333Z,27.13
2017-06-23T07:12:09.218Z,27.81
2017-06-23T07:14:35.150Z,27.85
2017-06-23T07:17:00.997Z,27.90
2017-06-23T07:19:26.881Z,27.90
2017-06-23T07:21:52.694Z,27.95
2017-06-23T07:24:18.560Z,27.63
2017-06-23T07:26:44.490Z,28.09
2017-06-23T07:29:10.345Z,27.82
2017-06-23T07:31:36.436Z,28.24
2017-06-23T07:34:02.322Z,28.53
2017-06-23T07:36:28.202Z,28.58
2017-06-23T07:38:54.040Z,28.43
2017-06-23T07:41:19.921Z,28.54
2017-06-23T07:43:45.852Z,28.59
2017-06-23T07:46:11.717Z,29.28
2017-06-23T07:48:37.803Z,29.19
2017-06-23T07:51:03.701Z,28.56
2017-06-23T07:53:29.577Z,29.26
2017-06-23T07:55:55.621Z,28.98
2017-06-23T07:58:21.457Z,28.69
2017-06-23T08:00:47.444Z,29.03
2017-06-23T08:03:13.284Z,28.76
2017-06-23T08:05:39.207Z,29.16
2017-06-23T08:08:05.098Z,29.15
2017-06-23T08:10:31.139Z,29.02
2017-06-23T08:12:56.990Z,29.49
2017-06-23T08:15:22.900Z,28.94
2017-06-23T08:17:48.747Z,29.38
2017-06-23T08:20:14.588Z,29.32
2017-06-23T08:22:40.449Z,29.57
2017-06-23T08:25:06.535Z,29.20
2017-06-23T08:27:32.456Z,29.61
2017-06-23T08:29:58.321Z,29.54
2017-06-23T08:32:24.383Z,28.93
2017-06-23T08:34:50.387Z,29.41
2017-06-23T08:37:16.938Z,29.68
2017-06-23T08:39:42.840Z,28.93
2017-06-23T08:42:08.951Z,29.80
2017-06-23T08:44:34.801Z,29.47
2017-06-23T08:47:00.772Z,28.99
2017-06-23T08:49:26.704Z,29.32
2017-06-23T08:51:52.601Z,29.52
2017-06-23T08:54:19.107Z,29.70
2017-06-23T08:56:45.057Z,30.45
2017-06-23T08:59:11.035Z,30.23
2017-06-23T09:01:37.131Z,29.41
2017-06-23T09:04:03.013Z,29.37
2017-06-23T09:06:28.901Z,28.75
2017-06-23T09:08:54.860Z,29.06
2017-06-23T09:11:21.050Z,29.38
2017-06-23T09:13:47.048Z,29.46
2017-06-23T09:16:12.910Z,29.09
2017-06-23T09:18:38.887Z,29.25
2017-06-23T09:21:04.840Z,28.74
2017-06-23T09:23:30.913Z,28.70
2017-06-23T09:25:56.865Z,29.40
2017-06-23T09:28:22.704Z,29.02
2017-06-23T09:30:48.781Z,28.77
2017-06-23T09:33:14.740Z,28.88
2017-06-23T09:35:40.836Z,29.30
2017-06-23T09:38:06.723Z,29.17
2017-06-23T09:40:32.816Z,29.00
2017-06-23T09:42:58.972Z,28.63
2017-06-23T09:45:24.863Z,29.06
2017-06-23T09:47:50.743Z,29.03
2017-06-23T09:50:16.744Z,29.40
2017-06-23T09:52:43.876Z,29.40
2017-06-23T09:55:09.712Z,29.37
2017-06-23T09:57:35.631Z,29.59
2017-06-23T10:00:01.621Z,29.54
2017-06-23T10:02:27.672Z,28.97
2017-06-23T10:04:53.715Z,29.75
2017-06-23T10:07:19.706Z,29.82
2017-06-23T10:09:45.557Z,29.89
2017-06-23T10:12:11.512Z,29.85
2017-06-23T10:14:37.392Z,29.62
2017-06-23T10:17:03.419Z,29.58
2017-06-23T10:19:29.507Z,29.82
2017-06-23T10:21:55.504Z,29.43
2017-06-23T10:24:21.427Z,29.36
2017-06-23T10:26:47.379Z,29.78
2017-06-23T10:29:13.278Z,29.12
2017-06-23T10:31:39.183Z,29.79
2017-06-23T10:34:05.225Z,30.39
2017-06-23T10:36:31.310Z,30.12
2017-06-23T10:38:58.316Z,30.37
2017-06-23T10:41:24.361Z,30.51
2017-06-23T10:43:50.321Z,28.99
2017-06-23T10:46:16.320Z,28.63
2017-06-23T10:48:42.344Z,28.59
2017-06-23T10:51:08.324Z,28.53
2017-06-23T10:53:34.232Z,28.45
2017-06-23T10:56:00.323Z,28.77
2017-06-23T10:58:26.140Z,29.22
2017-06-23T11:00:51.992Z,29.51
2017-06-23T11:03:17.952Z,28.81
2017-06-23T11:05:43.852Z,28.88
2017-06-23T11:08:09.805Z,29.70
2017-06-23T11:10:35.684Z,29.08
2017-06-23T11:13:01.527Z,28.98
2017-06-23T11:15:27.409Z,29.54
2017-06-23T11:17:54.144Z,28.98
2017-06-23T11:20:20.052Z,29.34
2017-06-23T11:22:46.013Z,28.75
2017-06-23T11:25:11.894Z,28.72
2017-06-23T11:27:37.856Z,28.84
2017-06-23T11:30:03.708Z,29.81
2017-06-23T11:32:29.593Z,30.16
2017-06-23T11:34:56.352Z,29.54
2017-06-23T11:37:22.206Z,29.26
2017-06-23T11:39:48.195Z,28.82
2017-06-23T11:42:14.124Z,28.85
2017-06-23T11:44:40.032Z,29.33
2017-06-23T11:47:05.909Z,29.19
2017-06-23T11:49:31.896Z,28.80
2017-06-23T11:51:57.884Z,29.20
2017-06-23T11:54:23.776Z,29.76
2017-06-23T11:56:49.764Z,29.40
2017-06-23T11:59:15.616Z,29.71
2017-06-23T12:01:41.623Z,28.84
2017-06-23T12:04:07.660Z,30.20
2017-06-23T12:06:33.661Z,30.13
2017-06-23T12:08:59.501Z,29.27
2017-06-23T12:11:25.380Z,30.21
2017-06-23T12:13:51.275Z,30.86
2017-06-23T12:16:17.203Z,30.51
2017-06-23T12:18:43.181Z,29.93
2017-06-23T12:21:09.035Z,29.81
2017-06-23T12:23:34.969Z,29.13
2017-06-23T12:26:00.866Z,29.26
2017-06-23T12:28:26.793Z,29.11
2017-06-23T12:30:52.674Z,29.19
2017-06-23T12:33:18.543Z,29.52
2017-06-23T12:35:44.513Z,30.07
2017-06-23T12:38:10.369Z,29.68
2017-06-23T12:40:36.265Z,30.04
2017-06-23T12:43:02.168Z,29.35
2017-06-23T12:45:28.001Z,29.23
2017-06-23T12:47:53.919Z,29.17
2017-06-23T12:50:19.838Z,28.92
2017-06-23T12:52:45.711Z,29.12
2017-06-23T12:55:11.649Z,29.42
2017-06-23T12:57:38.658Z,29.07
2017-06-23T13:00:04.736Z,29.53
2017-06-23T13:02:30.590Z,29.49
2017-06-23T13:04:56.669Z,29.45
2017-06-23T13:07:22.580Z,29.46
2017-06-23T13:09:48.471Z,29.15
2017-06-23T13:12:14.922Z,29.23
2017-06-23T13:14:40.977Z,28.89
2017-06-23T13:17:07.040Z,29.22
2017-06-23T13:19:33.007Z,28.60
2017-06-23T13:21:58.900Z,28.51
2017-06-23T13:24:26.001Z,28.72
2017-06-23T13:26:51.960Z,29.44
2017-06-23T13:29:17.826Z,29.01
2017-06-23T13:31:43.792Z,28.54
2017-06-23T13:34:09.656Z,28.43
2017-06-23T13:36:36.449Z,28.60
2017-06-23T13:39:02.388Z,29.68
2017-06-23T13:41:28.252Z,29.61
2017-06-23T13:43:54.147Z,29.77
2017-06-23T13:46:20.183Z,30.22
2017-06-23T13:48:46.949Z,29.48
2017-06-23T13:51:12.784Z,29.93
2017-06-23T13:53:38.657Z,29.85
2017-06-23T13:56:04.488Z,29.67
2017-06-23T13:58:30.460Z,30.01
2017-06-23T14:00:56.400Z,28.77
2017-06-23T14:03:22.368Z,30.20
2017-06-23T14:05:48.383Z,29.94
2017-06-23T14:08:14.375Z,28.68
2017-06-23T14:10:40.228Z,29.32
2017-06-23T14:13:06.237Z,28.52
2017-06-23T14:15:32.083Z,29.52
2017-06-23T14:17:58.058Z,29.70
2017-06-23T14:20:23.936Z,29.61
2017-06-23T14:22:49.857Z,29.68
2017-06-23T14:25:15.783Z,29.76
2017-06-23T14:27:41.785Z,29.99
2017-06-23T14:30:07.752Z,29.73
2017-06-23T14:32:33.687Z,29.18
2017-06-23T14:34:59.591Z,29.25
2017-06-23T14:37:25.571Z,29.24
2017-06-23T14:39:51.428Z,29.07
2017-06-23T14:42:17.273Z,28.86
2017-06-23T14:44:43.172Z,29.47
2017-06-23T14:47:09.169Z,29.57
2017-06-23T14:49:35.200Z,29.72
2017-06-23T14:52:02.254Z,29.46
2017-06-23T14:54:28.221Z,29.56
2017-06-23T14:56:54.068Z,29.63
2017-06-23T14:59:20.104Z,29.47
2017-06-23T15:01:46.160Z,29.16
2017-06-23T15:04:12.183Z,29.57
2017-06-23T15:06:38.210Z,29.72
2017-06-23T15:09:04.232Z,29.53
2017-06-23T15:11:30.263Z,29.53
2017-06-23T15:13:56.274Z,29.31
2017-06-23T15:16:22.266Z,28.84
2017-06-23T15:18:48.174Z,28.70
2017-06-23T15:21:14.029Z,28.75
2017-06-23T15:23:39.961Z,29.02
2017-06-23T15:26:06.534Z,29.26
2017-06-23T15:28:32.605Z,28.67
2017-06-23T15:30:58.661Z,28.72
2017-06-23T15:33:24.671Z,29.13
2017-06-23T15:35:50.685Z,29.19
2017-06-23T15:38:17.047Z,29.04
2017-06-23T15:40:42.916Z,28.93
2017-06-23T15:43:08.757Z,28.87
2017-06-23T15:45:34.811Z,28.24
2017-06-23T15:48:00.812Z,28.65
2017-06-23T15:50:26.748Z,28.80
2017-06-23T15:52:52.699Z,29.00
2017-06-23T15:55:18.657Z,28.95
2017-06-23T15:57:45.970Z,28.86
2017-06-23T16:00:11.926Z,28.83
2017-06-23T16:02:37.754Z,28.95
2017-06-23T16:05:03.746Z,28.78
2017-06-23T16:07:29.607Z,28.24
2017-06-23T16:09:55.616Z,28.48
2017-06-23T16:12:21.704Z,27.63
2017-06-23T16:14:47.703Z,27.90
2017-06-23T16:17:13.609Z,27.91
2017-06-23T16:19:39.585Z,27.90
2017-06-23T16:22:05.547Z,27.92
2017-06-23T16:24:31.374Z,27.67
2017-06-23T16:26:57.453Z,28.04
2017-06-23T16:29:23.390Z,28.12
2017-06-23T16:31:49.443Z,27.56
2017-06-23T16:34:15.473Z,27.58
2017-06-23T16:36:41.400Z,27.39
2017-06-23T16:39:07.251Z,27.26
2017-06-23T16:41:33.116Z,27.69
2017-06-23T16:43:58.973Z,27.52
2017-06-23T16:46:24.962Z,27.71
2017-06-23T16:48:50.869Z,27.57
2017-06-23T16:51:16.708Z,27.44
2017-06-23T16:53:42.569Z,27.66
2017-06-23T16:56:08.435Z,27.74
2017-06-23T16:58:34.483Z,27.80
2017-06-23T17:01:00.460Z,27.56
2017-06-23T17:03:26.328Z,27.52
2017-06-23T17:05:52.376Z,27.39
2017-06-23T17:08:18.311Z,27.60
2017-06-23T17:10:44.208Z,27.31
2017-06-23T17:13:10.110Z,27.40
2017-06-23T17:15:35.977Z,27.43
2017-06-23T17:18:01.925Z,27.34
2017-06-23T17:20:27.800Z,27.15
2017-06-23T17:22:53.886Z,27.30
2017-06-23T17:25:19.759Z,27.45
2017-06-23T17:27:45.650Z,27.30
2017-06-23T17:30:11.623Z,27.31
2017-06-23T17:32:37.462Z,27.20
2017-06-23T17:35:03.310Z,27.22
2017-06-23T17:37:29.224Z,27.06
2017-06-23T17:39:55.108Z,26.94
2017-06-23T17:42:20.977Z,26.95
2017-06-23T17:44:46.912Z,26.74
2017-06-23T17:47:12.820Z,26.81
2017-06-23T17:49:38.766Z,26.77
2017-06-23T17:52:04.636Z,26.73
2017-06-23T17:54:30.516Z,26.73
2017-06-23T17:56:56.609Z,26.65
2017-06-23T17:59:22.522Z,26.70
2017-06-23T18:01:48.412Z,26.73
2017-06-23T18:04:14.285Z,26.59
2017-06-23T18:06:40.172Z,26.65
2017-06-23T18:09:06.021Z,26.63
2017-06-23T18:11:31.992Z,26.54
2017-06-23T18:13:57.836Z,26.54
2017-06-23T18:16:23.937Z,26.42
2017-06-23T18:18:49.813Z,26.32
2017-06-23T18:21:15.656Z,26.36
2017-06-23T18:23:41.583Z,26.30
2017-06-23T18:26:07.552Z,26.32
2017-06-23T18:28:33.491Z,26.25
2017-06-23T18:30:59.381Z,26.19
2017-06-23T18:33:25.241Z,26.19
2017-06-23T18:35:51.263Z,26.14
2017-06-23T18:38:17.306Z,26.09
2017-06-23T18:40:43.770Z,26.00
2017-06-23T18:43:09.922Z,25.95
2017-06-23T18:45:35.804Z,25.92
2017-06-23T18:48:01.822Z,25.84
2017-06-23T18:50:27.772Z,25.63
2017-06-23T18:52:53.626Z,25.63
2017-06-23T18:55:19.597Z,25.60
2017-06-23T18:57:45.977Z,25.54
2017-06-23T19:00:11.847Z,25.38
2017-06-23T19:02:37.725Z,25.51
2017-06-23T19:05:03.667Z,25.28
2017-06-23T19:07:29.532Z,25.42
2017-06-23T19:09:55.382Z,25.40
2017-06-23T19:12:21.263Z,25.34
2017-06-23T19:14:47.199Z,25.14
2017-06-23T19:17:13.060Z,25.11
2017-06-23T19:19:38.886Z,25.06
2017-06-23T19:22:04.841Z,25.06
2017-06-23T19:24:30.703Z,25.08
2017-06-23T19:26:56.573Z,24.96
2017-06-23T19:29:23.111Z,25.31
2017-06-23T19:31:49.014Z,25.50
2017-06-23T19:34:15.051Z,25.37
2017-06-23T19:36:41.056Z,25.33
2017-06-23T19:39:07.172Z,25.18
2017-06-23T19:41:34.159Z,25.01
2017-06-23T19:44:00.159Z,25.02
2017-06-23T19:46:26.125Z,24.82
2017-06-23T19:48:51.981Z,24.67
2017-06-23T19:51:17.887Z,24.56
2017-06-23T19:53:43.771Z,24.69
2017-06-23T19:56:09.725Z,24.49
2017-06-23T19:58:35.601Z,24.46
2017-06-23T20:01:01.459Z,24.52
2017-06-23T20:03:27.279Z,24.55
2017-06-23T20:05:53.186Z,24.30
2017-06-23T20:08:19.100Z,24.43
2017-06-23T20:10:44.994Z,24.06
2017-06-23T20:13:10.972Z,24.28
2017-06-23T20:15:36.869Z,24.52
2017-06-23T20:18:02.857Z,24.33
2017-06-23T20:20:28.812Z,24.15
2017-06-23T20:22:54.742Z,23.83
2017-06-23T20:25:20.679Z,23.83
2017-06-23T20:27:46.564Z,23.68
2017-06-23T20:30:12.533Z,23.73
2017-06-23T20:32:38.421Z,23.82
2017-06-23T20:35:04.371Z,23.77
2017-06-23T20:37:30.332Z,23.67
2017-06-23T20:39:56.195Z,23.66
2017-06-23T20:42:22.091Z,23.62
2017-06-23T20:44:48.052Z,23.40
2017-06-23T20:47:13.929Z,23.49
2017-06-23T20:49:39.985Z,23.45
2017-06-23T20:52:06.729Z,23.48
2017-06-23T20:54:32.654Z,23.32
2017-06-23T20:56:58.556Z,23.23
2017-06-23T20:59:24.444Z,23.18
2017-06-23T21:01:50.478Z,23.23
2017-06-23T21:04:16.553Z,22.99
2017-06-23T21:06:42.551Z,22.98
2017-06-23T21:09:08.578Z,22.99
2017-06-23T21:11:34.540Z,22.92
2017-06-23T21:14:00.514Z,22.84
2017-06-23T21:16:26.493Z,22.79
2017-06-23T21:18:52.364Z,22.75
2017-06-23T21:21:18.236Z,22.83
2017-06-23T21:23:44.244Z,22.66
2017-06-23T21:26:10.224Z,22.48
2017-06-23T21:28:36.092Z,22.34
2017-06-23T21:31:01.960Z,22.30
2017-06-23T21:33:27.968Z,22.33
2017-06-23T21:35:53.960Z,22.30
2017-06-23T21:38:19.924Z,22.23
2017-06-23T21:40:58.343Z,22.15
2017-06-23T21:43:24.345Z,22.04
2017-06-23T21:45:50.209Z,21.94
2017-06-23T21:48:16.163Z,21.90
2017-06-23T21:50:42.032Z,21.83
2017-06-23T21:53:08.022Z,21.79
2017-06-23T21:55:34.136Z,21.83
2017-06-23T21:58:00.031Z,21.70
2017-06-23T22:00:25.912Z,21.75
2017-06-23T22:02:51.791Z,21.65
2017-06-23T22:05:17.697Z,21.74
2017-06-23T22:07:43.653Z,21.76
2017-06-23T22:10:09.934Z,21.75
2017-06-23T22:12:35.884Z,21.81
2017-06-23T22:15:01.816Z,21.83
2017-06-23T22:17:27.721Z,21.28
2017-06-23T22:19:53.624Z,20.79
2017-06-23T22:22:19.574Z,20.96
2017-06-23T22:24:45.481Z,20.94
2017-06-23T22:27:11.356Z,21.07
2017-06-23T22:29:37.210Z,21.06
2017-06-23T22:32:03.177Z,20.95
2017-06-23T22:34:29.077Z,20.82
2017-06-23T22:36:54.982Z,20.88
2017-06-23T22:39:20.946Z,20.94
2017-06-23T22:41:46.803Z,20.93
2017-06-23T22:44:12.651Z,20.97
2017-06-23T22:46:38.557Z,21.05
2017-06-23T22:49:04.514Z,21.01
2017-06-23T22:51:30.409Z,20.85
2017-06-23T22:53:56.344Z,20.89
2017-06-23T22:56:22.223Z,20.71
2017-06-23T22:58:48.042Z,20.62
2017-06-23T23:01:13.936Z,20.68
2017-06-23T23:03:39.864Z,20.59
2017-06-23T23:06:05.712Z,20.71
2017-06-23T23:08:31.629Z,20.78
2017-06-23T23:10:57.504Z,20.64
2017-06-23T23:13:23.405Z,20.52
2017-06-23T23:15:49.384Z,20.41
2017-06-23T23:18:15.268Z,20.26
2017-06-23T23:20:41.168Z,20.23
2017-06-23T23:23:07.051Z,20.18
2017-06-23T23:25:32.889Z,20.24
2017-06-23T23:27:58.900Z,20.11
2017-06-23T23:30:24.966Z,20.22
2017-06-23T23:32:50.883Z,20.35
2017-06-23T23:35:16.764Z,20.44
2017-06-23T23:37:42.631Z,20.57
2017-06-23T23:40:08.549Z,20.51
2017-06-23T23:42:34.419Z,20.45
2017-06-23T23:45:00.249Z,20.55
2017-06-23T23:47:26.164Z,20.33
2017-06-23T23:49:52.036Z,20.15
2017-06-23T23:52:17.932Z,20.10
2017-06-23T23:54:43.886Z,19.98
2017-06-23T23:57:09.728Z,19.97
2017-06-23T23:59:35.597Z,19.94
